Swidnica, Poland
Current Conditions -  °F | °C
As of 10:30 PM on Saturday 20 Dec 2014 (Local Time) from EPWR Reporting Station
Scattered Clouds Scattered Clouds  
Wind Chill: 32°   Ceiling: Unl
Heat Index: 41°   Visibility: 6mi
Dew Point: 36°   Wind: 17mph
Humidity: 81%   Direction: 270°W
Pressure: 29.85"   Gusts: NA
Location:  50.85°N, 16.49°E
Report Text: EPWR 202030Z 27015KT 9999 SCT020 05/02 Q1011
Loading
Personal Weather Stations






























Interactive Weather Map New forecast layout! Learn more

10-Day Weather Forecast

Advertisements
Track Severe Weather on mobile